sensor_id;sensor_type;location;lat;lon;timestamp;temperature;humidity
70726;DHT22;58304;53.104;6.022;2023-02-26T00:00:36;1.50;99.90
70726;DHT22;58304;53.104;6.022;2023-02-26T00:03:01;1.50;99.90
70726;DHT22;58304;53.104;6.022;2023-02-26T00:05:27;1.50;99.90
70726;DHT22;58304;53.104;6.022;2023-02-26T00:07:53;1.50;99.90
70726;DHT22;58304;53.104;6.022;2023-02-26T00:10:18;1.40;99.90
70726;DHT22;58304;53.104;6.022;2023-02-26T00:12:44;1.50;99.90
70726;DHT22;58304;53.104;6.022;2023-02-26T00:15:11;1.40;99.90
70726;DHT22;58304;53.104;6.022;2023-02-26T00:20:21;1.30;99.90
70726;DHT22;58304;53.104;6.022;2023-02-26T00:22:47;1.30;99.90
70726;DHT22;58304;53.104;6.022;2023-02-26T00:25:12;1.30;99.90
70726;DHT22;58304;53.104;6.022;2023-02-26T00:27:38;1.20;99.90
70726;DHT22;58304;53.104;6.022;2023-02-26T00:30:06;1.20;99.90
70726;DHT22;58304;53.104;6.022;2023-02-26T00:32:33;1.20;99.90
70726;DHT22;58304;53.104;6.022;2023-02-26T00:34:59;1.20;99.90
70726;DHT22;58304;53.104;6.022;2023-02-26T00:40:36;1.10;99.90
70726;DHT22;58304;53.104;6.022;2023-02-26T00:43:08;1.10;99.90
70726;DHT22;58304;53.104;6.022;2023-02-26T00:45:34;1.00;99.90
70726;DHT22;58304;53.104;6.022;2023-02-26T00:48:21;1.00;99.90
70726;DHT22;58304;53.104;6.022;2023-02-26T00:51:20;1.00;99.90
70726;DHT22;58304;53.104;6.022;2023-02-26T00:54:08;0.90;99.90
70726;DHT22;58304;53.104;6.022;2023-02-26T00:56:37;0.90;99.90
70726;DHT22;58304;53.104;6.022;2023-02-26T00:59:03;0.90;99.90
70726;DHT22;58304;53.104;6.022;2023-02-26T01:01:30;0.90;99.90
70726;DHT22;58304;53.104;6.022;2023-02-26T01:03:55;0.80;99.90
70726;DHT22;58304;53.104;6.022;2023-02-26T01:06:26;0.80;99.90
70726;DHT22;58304;53.104;6.022;2023-02-26T01:09:01;0.80;99.90
70726;DHT22;58304;53.104;6.022;2023-02-26T01:11:28;0.80;99.90
70726;DHT22;58304;53.104;6.022;2023-02-26T01:13:54;0.80;99.90
70726;DHT22;58304;53.104;6.022;2023-02-26T01:16:24;0.80;99.90
70726;DHT22;58304;53.104;6.022;2023-02-26T01:19:23;0.80;99.90
70726;DHT22;58304;53.104;6.022;2023-02-26T01:21:59;0.80;99.90
70726;DHT22;58304;53.104;6.022;2023-02-26T01:24:29;0.70;99.90
70726;DHT22;58304;53.104;6.022;2023-02-26T01:26:55;0.70;99.90
70726;DHT22;58304;53.104;6.022;2023-02-26T01:29:21;0.70;99.90
70726;DHT22;58304;53.104;6.022;2023-02-26T01:32:14;0.70;99.90
70726;DHT22;58304;53.104;6.022;2023-02-26T01:34:49;0.70;99.90
70726;DHT22;58304;53.104;6.022;2023-02-26T01:40:51;0.70;99.90
70726;DHT22;58304;53.104;6.022;2023-02-26T01:43:27;0.60;99.90
70726;DHT22;58304;53.104;6.022;2023-02-26T01:46:05;0.60;99.90
70726;DHT22;58304;53.104;6.022;2023-02-26T01:48:55;0.60;99.90
70726;DHT22;58304;53.104;6.022;2023-02-26T01:54:05;0.60;99.90
70726;DHT22;58304;53.104;6.022;2023-02-26T01:56:31;0.50;99.90
70726;DHT22;58304;53.104;6.022;2023-02-26T01:58:57;0.60;99.90
70726;DHT22;58304;53.104;6.022;2023-02-26T02:01:23;0.60;99.90
70726;DHT22;58304;53.104;6.022;2023-02-26T02:03:49;0.60;99.90
70726;DHT22;58304;53.104;6.022;2023-02-26T02:06:20;0.50;99.90
70726;DHT22;58304;53.104;6.022;2023-02-26T02:08:46;0.50;99.90
70726;DHT22;58304;53.104;6.022;2023-02-26T02:11:12;0.50;99.90
70726;DHT22;58304;53.104;6.022;2023-02-26T02:14:08;0.50;99.90
70726;DHT22;58304;53.104;6.022;2023-02-26T02:23:04;0.50;99.90
70726;DHT22;58304;53.104;6.022;2023-02-26T02:26:06;0.50;99.90
70726;DHT22;58304;53.104;6.022;2023-02-26T02:34:33;0.60;99.90
70726;DHT22;58304;53.104;6.022;2023-02-26T02:37:09;0.60;99.90
70726;DHT22;58304;53.104;6.022;2023-02-26T02:39:50;0.60;99.90
70726;DHT22;58304;53.104;6.022;2023-02-26T02:42:31;0.60;99.90
70726;DHT22;58304;53.104;6.022;2023-02-26T02:45:08;0.50;99.90
70726;DHT22;58304;53.104;6.022;2023-02-26T02:47:39;0.50;99.90
70726;DHT22;58304;53.104;6.022;2023-02-26T02:50:15;0.50;99.90
70726;DHT22;58304;53.104;6.022;2023-02-26T02:52:44;0.40;99.90
70726;DHT22;58304;53.104;6.022;2023-02-26T02:55:15;0.40;99.90
70726;DHT22;58304;53.104;6.022;2023-02-26T02:57:49;0.40;99.90
70726;DHT22;58304;53.104;6.022;2023-02-26T03:00:16;0.30;99.90
70726;DHT22;58304;53.104;6.022;2023-02-26T03:03:04;0.30;99.90
70726;DHT22;58304;53.104;6.022;2023-02-26T03:05:31;0.30;99.90
70726;DHT22;58304;53.104;6.022;2023-02-26T03:08:09;0.30;99.90
70726;DHT22;58304;53.104;6.022;2023-02-26T03:10:37;0.30;99.90
70726;DHT22;58304;53.104;6.022;2023-02-26T03:13:02;0.20;99.90
70726;DHT22;58304;53.104;6.022;2023-02-26T03:15:59;0.20;99.90
70726;DHT22;58304;53.104;6.022;2023-02-26T03:23:59;0.10;99.90
70726;DHT22;58304;53.104;6.022;2023-02-26T03:26:28;0.10;99.90
70726;DHT22;58304;53.104;6.022;2023-02-26T03:29:10;0.10;99.90
70726;DHT22;58304;53.104;6.022;2023-02-26T03:32:06;0.10;99.90
70726;DHT22;58304;53.104;6.022;2023-02-26T03:34:45;0.10;99.90
70726;DHT22;58304;53.104;6.022;2023-02-26T03:40:14;0.10;99.90
70726;DHT22;58304;53.104;6.022;2023-02-26T03:45:17;0.20;99.90
70726;DHT22;58304;53.104;6.022;2023-02-26T03:47:47;0.20;99.90
70726;DHT22;58304;53.104;6.022;2023-02-26T03:50:20;0.20;99.90
70726;DHT22;58304;53.104;6.022;2023-02-26T03:52:49;0.20;99.90
70726;DHT22;58304;53.104;6.022;2023-02-26T03:55:23;0.30;99.90
70726;DHT22;58304;53.104;6.022;2023-02-26T03:57:50;0.30;99.90
70726;DHT22;58304;53.104;6.022;2023-02-26T04:00:17;0.30;99.90
70726;DHT22;58304;53.104;6.022;2023-02-26T04:02:57;0.40;99.90
70726;DHT22;58304;53.104;6.022;2023-02-26T04:05:27;0.40;99.90
70726;DHT22;58304;53.104;6.022;2023-02-26T04:07:54;0.50;99.90
70726;DHT22;58304;53.104;6.022;2023-02-26T04:10:31;0.40;99.90
70726;DHT22;58304;53.104;6.022;2023-02-26T04:12:59;0.50;99.90
70726;DHT22;58304;53.104;6.022;2023-02-26T04:15:25;0.50;99.90
70726;DHT22;58304;53.104;6.022;2023-02-26T04:17:51;0.50;99.90
70726;DHT22;58304;53.104;6.022;2023-02-26T04:20:16;0.40;99.90
70726;DHT22;58304;53.104;6.022;2023-02-26T04:22:42;0.40;99.90
70726;DHT22;58304;53.104;6.022;2023-02-26T04:25:07;0.40;99.90
70726;DHT22;58304;53.104;6.022;2023-02-26T04:27:33;0.30;99.90
70726;DHT22;58304;53.104;6.022;2023-02-26T04:29:59;0.30;99.90
70726;DHT22;58304;53.104;6.022;2023-02-26T04:32:24;0.30;99.90
70726;DHT22;58304;53.104;6.022;2023-02-26T04:34:50;0.30;99.90
70726;DHT22;58304;53.104;6.022;2023-02-26T04:37:15;0.20;99.90
70726;DHT22;58304;53.104;6.022;2023-02-26T04:39:41;0.20;99.90
70726;DHT22;58304;53.104;6.022;2023-02-26T04:42:06;0.20;99.90
70726;DHT22;58304;53.104;6.022;2023-02-26T04:44:32;0.20;99.90
70726;DHT22;58304;53.104;6.022;2023-02-26T04:46:58;0.20;99.90
70726;DHT22;58304;53.104;6.022;2023-02-26T04:49:23;0.20;99.90
70726;DHT22;58304;53.104;6.022;2023-02-26T04:51:49;0.20;99.90
70726;DHT22;58304;53.104;6.022;2023-02-26T04:54:14;0.20;99.90
70726;DHT22;58304;53.104;6.022;2023-02-26T04:56:40;0.10;99.90
70726;DHT22;58304;53.104;6.022;2023-02-26T04:59:06;0.20;99.90
70726;DHT22;58304;53.104;6.022;2023-02-26T05:01:31;0.10;99.90
70726;DHT22;58304;53.104;6.022;2023-02-26T05:03:57;0.10;99.90
70726;DHT22;58304;53.104;6.022;2023-02-26T05:06:22;0.10;99.90
70726;DHT22;58304;53.104;6.022;2023-02-26T05:08:48;0.00;99.90
70726;DHT22;58304;53.104;6.022;2023-02-26T05:13:40;0.00;99.90
70726;DHT22;58304;53.104;6.022;2023-02-26T05:16:06;0.00;99.90
70726;DHT22;58304;53.104;6.022;2023-02-26T05:18:31;0.00;99.90
70726;DHT22;58304;53.104;6.022;2023-02-26T05:20:58;0.00;99.90
70726;DHT22;58304;53.104;6.022;2023-02-26T05:23:24;0.00;99.90
70726;DHT22;58304;53.104;6.022;2023-02-26T05:25:50;0.00;99.90
70726;DHT22;58304;53.104;6.022;2023-02-26T05:28:16;-0.10;99.90
70726;DHT22;58304;53.104;6.022;2023-02-26T05:30:42;-0.10;99.90
70726;DHT22;58304;53.104;6.022;2023-02-26T05:33:08;-0.10;99.90
70726;DHT22;58304;53.104;6.022;2023-02-26T05:35:33;-0.10;99.90
70726;DHT22;58304;53.104;6.022;2023-02-26T05:37:59;-0.10;99.90
70726;DHT22;58304;53.104;6.022;2023-02-26T05:40:25;-0.20;99.90
70726;DHT22;58304;53.104;6.022;2023-02-26T05:42:50;-0.20;99.90
70726;DHT22;58304;53.104;6.022;2023-02-26T05:45:16;-0.20;99.90
70726;DHT22;58304;53.104;6.022;2023-02-26T05:47:42;-0.30;99.90
70726;DHT22;58304;53.104;6.022;2023-02-26T05:50:08;-0.30;99.90
70726;DHT22;58304;53.104;6.022;2023-02-26T05:52:34;-0.30;99.90
70726;DHT22;58304;53.104;6.022;2023-02-26T05:54:59;-0.30;99.90
70726;DHT22;58304;53.104;6.022;2023-02-26T05:57:25;-0.30;99.90
70726;DHT22;58304;53.104;6.022;2023-02-26T05:59:51;-0.30;99.90
70726;DHT22;58304;53.104;6.022;2023-02-26T06:02:16;-0.40;99.90
70726;DHT22;58304;53.104;6.022;2023-02-26T06:04:43;-0.40;99.90
70726;DHT22;58304;53.104;6.022;2023-02-26T06:07:09;-0.40;99.90
70726;DHT22;58304;53.104;6.022;2023-02-26T06:09:34;-0.40;99.90
70726;DHT22;58304;53.104;6.022;2023-02-26T06:12:01;-0.40;99.90
70726;DHT22;58304;53.104;6.022;2023-02-26T06:14:27;-0.40;99.90
70726;DHT22;58304;53.104;6.022;2023-02-26T06:16:52;-0.40;99.90
70726;DHT22;58304;53.104;6.022;2023-02-26T06:19:18;-0.50;99.90
70726;DHT22;58304;53.104;6.022;2023-02-26T06:21:47;-0.50;99.90
70726;DHT22;58304;53.104;6.022;2023-02-26T06:24:12;-0.50;99.90
70726;DHT22;58304;53.104;6.022;2023-02-26T06:26:38;-0.50;99.90
70726;DHT22;58304;53.104;6.022;2023-02-26T06:29:04;-0.50;99.90
70726;DHT22;58304;53.104;6.022;2023-02-26T06:31:29;-0.60;99.90
70726;DHT22;58304;53.104;6.022;2023-02-26T06:33:55;-0.60;99.90
70726;DHT22;58304;53.104;6.022;2023-02-26T06:36:20;-0.60;99.90
70726;DHT22;58304;53.104;6.022;2023-02-26T06:38:46;-0.60;99.90
70726;DHT22;58304;53.104;6.022;2023-02-26T06:41:12;-0.60;99.90
70726;DHT22;58304;53.104;6.022;2023-02-26T06:43:38;-0.50;99.90
70726;DHT22;58304;53.104;6.022;2023-02-26T06:46:04;-0.50;99.90
70726;DHT22;58304;53.104;6.022;2023-02-26T06:48:30;-0.50;99.90
70726;DHT22;58304;53.104;6.022;2023-02-26T06:50:56;-0.50;99.90
70726;DHT22;58304;53.104;6.022;2023-02-26T06:53:21;-0.40;99.90
70726;DHT22;58304;53.104;6.022;2023-02-26T06:55:50;-0.30;99.90
70726;DHT22;58304;53.104;6.022;2023-02-26T06:58:16;-0.10;99.90
70726;DHT22;58304;53.104;6.022;2023-02-26T07:00:42;-0.10;99.90
70726;DHT22;58304;53.104;6.022;2023-02-26T07:03:12;0.00;99.90
70726;DHT22;58304;53.104;6.022;2023-02-26T07:05:40;0.10;99.90
70726;DHT22;58304;53.104;6.022;2023-02-26T07:08:06;0.20;99.90
70726;DHT22;58304;53.104;6.022;2023-02-26T07:10:33;0.40;99.90
70726;DHT22;58304;53.104;6.022;2023-02-26T07:12:59;0.50;99.90
70726;DHT22;58304;53.104;6.022;2023-02-26T07:15:25;0.50;99.90
70726;DHT22;58304;53.104;6.022;2023-02-26T07:17:50;0.60;99.90
70726;DHT22;58304;53.104;6.022;2023-02-26T07:20:16;0.80;99.90
70726;DHT22;58304;53.104;6.022;2023-02-26T07:22:42;1.20;99.90
70726;DHT22;58304;53.104;6.022;2023-02-26T07:25:08;1.80;99.90
70726;DHT22;58304;53.104;6.022;2023-02-26T07:27:34;2.70;99.90
70726;DHT22;58304;53.104;6.022;2023-02-26T07:30:00;3.30;99.90
70726;DHT22;58304;53.104;6.022;2023-02-26T07:32:26;3.80;99.90
70726;DHT22;58304;53.104;6.022;2023-02-26T07:34:52;4.40;99.90
70726;DHT22;58304;53.104;6.022;2023-02-26T07:37:17;5.40;99.90
70726;DHT22;58304;53.104;6.022;2023-02-26T07:39:44;6.50;99.90
70726;DHT22;58304;53.104;6.022;2023-02-26T07:42:10;7.50;99.90
70726;DHT22;58304;53.104;6.022;2023-02-26T07:44:35;8.60;99.90
70726;DHT22;58304;53.104;6.022;2023-02-26T07:47:01;9.50;99.90
70726;DHT22;58304;53.104;6.022;2023-02-26T07:49:27;10.10;99.90
70726;DHT22;58304;53.104;6.022;2023-02-26T07:51:53;10.70;99.90
70726;DHT22;58304;53.104;6.022;2023-02-26T07:54:18;11.10;99.90
70726;DHT22;58304;53.104;6.022;2023-02-26T07:56:44;11.20;98.80
70726;DHT22;58304;53.104;6.022;2023-02-26T07:59:10;11.10;99.20
70726;DHT22;58304;53.104;6.022;2023-02-26T08:01:36;11.20;99.60
70726;DHT22;58304;53.104;6.022;2023-02-26T08:04:02;11.30;98.00
70726;DHT22;58304;53.104;6.022;2023-02-26T08:06:28;10.80;96.00
70726;DHT22;58304;53.104;6.022;2023-02-26T08:08:54;11.10;97.00
70726;DHT22;58304;53.104;6.022;2023-02-26T08:11:19;11.40;96.40
70726;DHT22;58304;53.104;6.022;2023-02-26T08:13:45;11.60;95.70
70726;DHT22;58304;53.104;6.022;2023-02-26T08:16:11;12.20;94.70
70726;DHT22;58304;53.104;6.022;2023-02-26T08:18:36;12.80;94.00
70726;DHT22;58304;53.104;6.022;2023-02-26T08:21:02;13.90;93.80
70726;DHT22;58304;53.104;6.022;2023-02-26T08:23:28;14.90;92.20
70726;DHT22;58304;53.104;6.022;2023-02-26T08:26:05;15.50;90.70
70726;DHT22;58304;53.104;6.022;2023-02-26T08:28:31;15.50;83.10
70726;DHT22;58304;53.104;6.022;2023-02-26T08:30:57;16.40;84.50
70726;DHT22;58304;53.104;6.022;2023-02-26T08:33:23;17.30;82.10
70726;DHT22;58304;53.104;6.022;2023-02-26T08:35:50;17.80;78.70
70726;DHT22;58304;53.104;6.022;2023-02-26T08:38:16;18.30;77.20
70726;DHT22;58304;53.104;6.022;2023-02-26T08:40:42;18.80;75.60
70726;DHT22;58304;53.104;6.022;2023-02-26T08:43:08;18.90;73.00
70726;DHT22;58304;53.104;6.022;2023-02-26T08:45:36;19.40;72.20
70726;DHT22;58304;53.104;6.022;2023-02-26T08:48:01;19.80;68.70
70726;DHT22;58304;53.104;6.022;2023-02-26T08:50:27;20.10;66.90
70726;DHT22;58304;53.104;6.022;2023-02-26T08:52:53;20.60;63.80
70726;DHT22;58304;53.104;6.022;2023-02-26T08:55:18;20.90;64.10
70726;DHT22;58304;53.104;6.022;2023-02-26T08:57:44;21.30;64.40
70726;DHT22;58304;53.104;6.022;2023-02-26T09:00:10;21.20;63.80
70726;DHT22;58304;53.104;6.022;2023-02-26T09:02:40;21.50;60.80
70726;DHT22;58304;53.104;6.022;2023-02-26T09:05:05;21.50;60.80
70726;DHT22;58304;53.104;6.022;2023-02-26T09:07:31;21.70;57.70
70726;DHT22;58304;53.104;6.022;2023-02-26T09:09:57;21.70;55.90
70726;DHT22;58304;53.104;6.022;2023-02-26T09:12:22;21.10;54.50
70726;DHT22;58304;53.104;6.022;2023-02-26T09:14:48;21.70;58.00
70726;DHT22;58304;53.104;6.022;2023-02-26T09:17:13;21.60;57.10
70726;DHT22;58304;53.104;6.022;2023-02-26T09:19:39;21.20;53.70
70726;DHT22;58304;53.104;6.022;2023-02-26T09:22:05;21.90;56.90
70726;DHT22;58304;53.104;6.022;2023-02-26T09:24:31;22.20;57.00
70726;DHT22;58304;53.104;6.022;2023-02-26T09:26:56;21.60;53.90
70726;DHT22;58304;53.104;6.022;2023-02-26T09:29:22;21.60;55.70
70726;DHT22;58304;53.104;6.022;2023-02-26T09:31:47;22.10;57.00
70726;DHT22;58304;53.104;6.022;2023-02-26T09:34:13;22.20;54.10
70726;DHT22;58304;53.104;6.022;2023-02-26T09:36:39;22.70;55.40
70726;DHT22;58304;53.104;6.022;2023-02-26T09:39:06;22.50;53.60
70726;DHT22;58304;53.104;6.022;2023-02-26T09:41:40;22.70;54.20
70726;DHT22;58304;53.104;6.022;2023-02-26T09:49:32;22.80;53.70
70726;DHT22;58304;53.104;6.022;2023-02-26T09:52:26;22.80;51.70
70726;DHT22;58304;53.104;6.022;2023-02-26T09:54:58;22.70;53.60
70726;DHT22;58304;53.104;6.022;2023-02-26T09:57:33;22.50;52.50
70726;DHT22;58304;53.104;6.022;2023-02-26T09:59:59;22.30;53.60
70726;DHT22;58304;53.104;6.022;2023-02-26T10:02:39;22.30;54.00
70726;DHT22;58304;53.104;6.022;2023-02-26T10:05:25;22.80;54.60
70726;DHT22;58304;53.104;6.022;2023-02-26T10:08:06;23.10;50.30
70726;DHT22;58304;53.104;6.022;2023-02-26T10:13:45;22.20;52.80
70726;DHT22;58304;53.104;6.022;2023-02-26T10:16:22;22.00;52.00
70726;DHT22;58304;53.104;6.022;2023-02-26T10:18:54;22.20;53.10
70726;DHT22;58304;53.104;6.022;2023-02-26T10:25:12;20.70;53.90
70726;DHT22;58304;53.104;6.022;2023-02-26T10:30:45;17.90;54.50
70726;DHT22;58304;53.104;6.022;2023-02-26T10:35:56;18.90;57.30
70726;DHT22;58304;53.104;6.022;2023-02-26T10:38:24;18.90;55.30
70726;DHT22;58304;53.104;6.022;2023-02-26T10:40:59;18.90;54.80
70726;DHT22;58304;53.104;6.022;2023-02-26T10:43:48;18.20;54.60
70726;DHT22;58304;53.104;6.022;2023-02-26T10:46:22;17.20;53.40
70726;DHT22;58304;53.104;6.022;2023-02-26T10:51:39;18.50;58.50
70726;DHT22;58304;53.104;6.022;2023-02-26T10:54:28;19.00;55.80
70726;DHT22;58304;53.104;6.022;2023-02-26T10:56:55;19.60;56.50
70726;DHT22;58304;53.104;6.022;2023-02-26T10:59:22;20.20;57.90
70726;DHT22;58304;53.104;6.022;2023-02-26T11:01:50;21.10;57.60
70726;DHT22;58304;53.104;6.022;2023-02-26T11:04:18;21.20;55.30
70726;DHT22;58304;53.104;6.022;2023-02-26T11:06:48;21.30;56.30
70726;DHT22;58304;53.104;6.022;2023-02-26T11:09:21;21.40;55.70
70726;DHT22;58304;53.104;6.022;2023-02-26T11:12:05;21.20;51.80
70726;DHT22;58304;53.104;6.022;2023-02-26T11:14:41;21.00;53.90
70726;DHT22;58304;53.104;6.022;2023-02-26T11:17:17;21.00;55.20
70726;DHT22;58304;53.104;6.022;2023-02-26T11:19:52;20.80;54.10
70726;DHT22;58304;53.104;6.022;2023-02-26T11:22:21;20.90;55.30
70726;DHT22;58304;53.104;6.022;2023-02-26T11:24:48;21.40;56.10
70726;DHT22;58304;53.104;6.022;2023-02-26T11:27:30;21.50;55.40
70726;DHT22;58304;53.104;6.022;2023-02-26T11:29:59;21.50;52.20
70726;DHT22;58304;53.104;6.022;2023-02-26T11:32:33;20.60;52.80
70726;DHT22;58304;53.104;6.022;2023-02-26T11:34:58;20.10;53.10
70726;DHT22;58304;53.104;6.022;2023-02-26T11:37:30;20.10;53.50
70726;DHT22;58304;53.104;6.022;2023-02-26T11:40:05;19.70;55.30
70726;DHT22;58304;53.104;6.022;2023-02-26T11:42:37;19.60;56.40
70726;DHT22;58304;53.104;6.022;2023-02-26T11:45:06;19.00;53.20
70726;DHT22;58304;53.104;6.022;2023-02-26T11:47:32;18.60;56.50
70726;DHT22;58304;53.104;6.022;2023-02-26T11:50:09;18.60;56.40
70726;DHT22;58304;53.104;6.022;2023-02-26T11:52:42;18.50;57.10
70726;DHT22;58304;53.104;6.022;2023-02-26T11:55:25;18.20;56.50
70726;DHT22;58304;53.104;6.022;2023-02-26T11:57:53;18.00;57.70
70726;DHT22;58304;53.104;6.022;2023-02-26T12:00:23;18.30;58.50
70726;DHT22;58304;53.104;6.022;2023-02-26T12:02:49;18.30;58.80
70726;DHT22;58304;53.104;6.022;2023-02-26T12:05:38;18.10;59.70
70726;DHT22;58304;53.104;6.022;2023-02-26T12:14:23;17.70;59.40
70726;DHT22;58304;53.104;6.022;2023-02-26T12:16:58;17.80;60.70
70726;DHT22;58304;53.104;6.022;2023-02-26T12:25:41;16.90;59.80
70726;DHT22;58304;53.104;6.022;2023-02-26T12:28:38;16.00;59.80
70726;DHT22;58304;53.104;6.022;2023-02-26T12:37:04;16.30;58.90
70726;DHT22;58304;53.104;6.022;2023-02-26T12:45:19;16.10;62.70
70726;DHT22;58304;53.104;6.022;2023-02-26T12:48:27;16.30;60.40
70726;DHT22;58304;53.104;6.022;2023-02-26T12:53:41;16.30;61.40
70726;DHT22;58304;53.104;6.022;2023-02-26T12:56:33;16.10;60.00
70726;DHT22;58304;53.104;6.022;2023-02-26T13:01:54;16.00;63.50
70726;DHT22;58304;53.104;6.022;2023-02-26T13:10:28;16.50;62.10
70726;DHT22;58304;53.104;6.022;2023-02-26T13:18:37;16.00;62.90
70726;DHT22;58304;53.104;6.022;2023-02-26T13:21:17;15.90;60.10
70726;DHT22;58304;53.104;6.022;2023-02-26T13:23:55;15.90;59.60
70726;DHT22;58304;53.104;6.022;2023-02-26T13:26:22;15.70;60.10
70726;DHT22;58304;53.104;6.022;2023-02-26T13:29:14;15.80;61.40
70726;DHT22;58304;53.104;6.022;2023-02-26T13:31:45;16.00;62.10
70726;DHT22;58304;53.104;6.022;2023-02-26T13:34:19;16.20;60.60
70726;DHT22;58304;53.104;6.022;2023-02-26T13:36:47;15.90;61.70
70726;DHT22;58304;53.104;6.022;2023-02-26T13:39:37;15.80;62.80
70726;DHT22;58304;53.104;6.022;2023-02-26T13:45:01;14.70;62.10
70726;DHT22;58304;53.104;6.022;2023-02-26T13:50:39;14.10;63.70
70726;DHT22;58304;53.104;6.022;2023-02-26T13:56:19;14.00;64.70
70726;DHT22;58304;53.104;6.022;2023-02-26T13:59:37;13.80;64.20
70726;DHT22;58304;53.104;6.022;2023-02-26T14:01:54;13.40;63.00
70726;DHT22;58304;53.104;6.022;2023-02-26T14:07:10;14.30;63.40
70726;DHT22;58304;53.104;6.022;2023-02-26T14:09:44;14.40;63.20
70726;DHT22;58304;53.104;6.022;2023-02-26T14:14:47;14.60;62.20
70726;DHT22;58304;53.104;6.022;2023-02-26T14:17:40;14.80;63.10
70726;DHT22;58304;53.104;6.022;2023-02-26T14:20:22;14.90;63.30
70726;DHT22;58304;53.104;6.022;2023-02-26T14:25:37;14.50;64.00
70726;DHT22;58304;53.104;6.022;2023-02-26T14:36:56;14.30;61.30
70726;DHT22;58304;53.104;6.022;2023-02-26T14:42:12;13.40;63.50
70726;DHT22;58304;53.104;6.022;2023-02-26T14:44:43;13.60;65.40
70726;DHT22;58304;53.104;6.022;2023-02-26T14:47:10;13.80;64.70
70726;DHT22;58304;53.104;6.022;2023-02-26T14:49:39;13.70;65.80
70726;DHT22;58304;53.104;6.022;2023-02-26T14:52:42;14.10;65.00
70726;DHT22;58304;53.104;6.022;2023-02-26T14:58:13;13.50;63.80
70726;DHT22;58304;53.104;6.022;2023-02-26T15:00:50;13.00;65.10
70726;DHT22;58304;53.104;6.022;2023-02-26T15:11:40;12.10;66.60
70726;DHT22;58304;53.104;6.022;2023-02-26T15:14:27;11.50;66.80
70726;DHT22;58304;53.104;6.022;2023-02-26T15:19:55;11.30;67.10
70726;DHT22;58304;53.104;6.022;2023-02-26T15:22:32;11.00;68.60
70726;DHT22;58304;53.104;6.022;2023-02-26T15:25:01;10.80;68.90
70726;DHT22;58304;53.104;6.022;2023-02-26T15:27:29;10.90;69.40
70726;DHT22;58304;53.104;6.022;2023-02-26T15:29:56;10.90;68.70
70726;DHT22;58304;53.104;6.022;2023-02-26T15:32:34;11.10;69.20
70726;DHT22;58304;53.104;6.022;2023-02-26T15:35:20;11.10;68.80
70726;DHT22;58304;53.104;6.022;2023-02-26T15:37:54;11.00;68.20
70726;DHT22;58304;53.104;6.022;2023-02-26T15:40:22;10.90;67.10
70726;DHT22;58304;53.104;6.022;2023-02-26T15:42:50;10.60;67.80
70726;DHT22;58304;53.104;6.022;2023-02-26T15:45:32;10.30;68.80
70726;DHT22;58304;53.104;6.022;2023-02-26T15:48:04;10.10;70.30
70726;DHT22;58304;53.104;6.022;2023-02-26T15:50:37;9.80;70.30
70726;DHT22;58304;53.104;6.022;2023-02-26T15:53:05;9.60;71.60
70726;DHT22;58304;53.104;6.022;2023-02-26T15:55:41;9.50;71.50
70726;DHT22;58304;53.104;6.022;2023-02-26T15:58:08;9.10;73.30
70726;DHT22;58304;53.104;6.022;2023-02-26T16:00:35;8.90;74.00
70726;DHT22;58304;53.104;6.022;2023-02-26T16:03:01;8.90;74.40
70726;DHT22;58304;53.104;6.022;2023-02-26T16:05:29;8.80;74.80
70726;DHT22;58304;53.104;6.022;2023-02-26T16:07:55;8.70;75.10
70726;DHT22;58304;53.104;6.022;2023-02-26T16:10:38;8.50;75.30
70726;DHT22;58304;53.104;6.022;2023-02-26T16:13:06;8.30;76.70
70726;DHT22;58304;53.104;6.022;2023-02-26T16:15:37;8.30;78.10
70726;DHT22;58304;53.104;6.022;2023-02-26T16:18:06;8.20;77.80
70726;DHT22;58304;53.104;6.022;2023-02-26T16:20:40;8.20;78.00
70726;DHT22;58304;53.104;6.022;2023-02-26T16:23:12;8.20;78.20
70726;DHT22;58304;53.104;6.022;2023-02-26T16:25:49;7.90;79.70
70726;DHT22;58304;53.104;6.022;2023-02-26T16:35:20;7.60;82.90
70726;DHT22;58304;53.104;6.022;2023-02-26T16:37:49;7.40;84.30
70726;DHT22;58304;53.104;6.022;2023-02-26T16:40:32;7.30;83.50
70726;DHT22;58304;53.104;6.022;2023-02-26T16:46:16;7.00;88.00
70726;DHT22;58304;53.104;6.022;2023-02-26T16:48:54;6.80;88.00
70726;DHT22;58304;53.104;6.022;2023-02-26T16:51:25;6.80;88.30
70726;DHT22;58304;53.104;6.022;2023-02-26T16:54:02;6.70;88.10
70726;DHT22;58304;53.104;6.022;2023-02-26T16:56:32;6.60;90.20
70726;DHT22;58304;53.104;6.022;2023-02-26T16:59:18;6.50;90.40
70726;DHT22;58304;53.104;6.022;2023-02-26T17:02:02;6.30;91.30
70726;DHT22;58304;53.104;6.022;2023-02-26T17:04:32;6.20;91.30
70726;DHT22;58304;53.104;6.022;2023-02-26T17:06:58;6.20;91.40
70726;DHT22;58304;53.104;6.022;2023-02-26T17:09:26;6.20;92.00
70726;DHT22;58304;53.104;6.022;2023-02-26T17:12:22;6.00;92.30
70726;DHT22;58304;53.104;6.022;2023-02-26T17:14:57;5.80;92.90
70726;DHT22;58304;53.104;6.022;2023-02-26T17:17:23;5.70;92.60
70726;DHT22;58304;53.104;6.022;2023-02-26T17:19:49;5.70;93.10
70726;DHT22;58304;53.104;6.022;2023-02-26T17:22:15;5.60;93.20
70726;DHT22;58304;53.104;6.022;2023-02-26T17:24:43;5.60;93.60
70726;DHT22;58304;53.104;6.022;2023-02-26T17:27:16;5.50;93.80
70726;DHT22;58304;53.104;6.022;2023-02-26T17:29:44;5.40;94.20
70726;DHT22;58304;53.104;6.022;2023-02-26T17:32:24;5.40;94.40
70726;DHT22;58304;53.104;6.022;2023-02-26T17:34:51;5.30;94.60
70726;DHT22;58304;53.104;6.022;2023-02-26T17:37:17;5.20;94.80
70726;DHT22;58304;53.104;6.022;2023-02-26T17:39:43;5.00;95.30
70726;DHT22;58304;53.104;6.022;2023-02-26T17:42:14;4.80;96.40
70726;DHT22;58304;53.104;6.022;2023-02-26T17:44:41;4.80;96.10
70726;DHT22;58304;53.104;6.022;2023-02-26T17:47:21;4.70;96.70
70726;DHT22;58304;53.104;6.022;2023-02-26T17:49:47;4.60;97.30
70726;DHT22;58304;53.104;6.022;2023-02-26T17:52:13;4.50;98.00
70726;DHT22;58304;53.104;6.022;2023-02-26T17:54:39;4.30;98.70
70726;DHT22;58304;53.104;6.022;2023-02-26T17:57:05;4.20;99.80
70726;DHT22;58304;53.104;6.022;2023-02-26T17:59:31;4.10;99.90
70726;DHT22;58304;53.104;6.022;2023-02-26T18:01:57;4.00;99.90
70726;DHT22;58304;53.104;6.022;2023-02-26T18:04:23;3.90;99.90
70726;DHT22;58304;53.104;6.022;2023-02-26T18:06:49;3.80;99.90
70726;DHT22;58304;53.104;6.022;2023-02-26T18:09:15;3.70;99.90
70726;DHT22;58304;53.104;6.022;2023-02-26T18:11:41;3.70;99.90
70726;DHT22;58304;53.104;6.022;2023-02-26T18:14:07;3.70;99.90
70726;DHT22;58304;53.104;6.022;2023-02-26T18:16:36;3.60;99.90
70726;DHT22;58304;53.104;6.022;2023-02-26T18:19:03;3.60;99.90
70726;DHT22;58304;53.104;6.022;2023-02-26T18:21:30;3.50;99.90
70726;DHT22;58304;53.104;6.022;2023-02-26T18:23:56;3.40;99.90
70726;DHT22;58304;53.104;6.022;2023-02-26T18:26:23;3.40;99.90
70726;DHT22;58304;53.104;6.022;2023-02-26T18:28:52;3.30;99.90
70726;DHT22;58304;53.104;6.022;2023-02-26T18:31:20;3.30;99.90